Temp: 6.7°C   Baro: 1024.5mb
  Wind: 2.9mph   Dir: WNW (289°)
  Rain: 0.2mm (0.0mm/hr)
  Solar: 0W/m2  Hum: 93%
 
Bath Spa Weather Historical Data
Daily Summary for March 16, 2019 Units:  Metric    English   Both
Next Day »
Daily Weekly Monthly Yearly Custom
  High: Low: Average:
Temperature: 12.9 °C -17.8 °C 10 °C
Dew Point: 9.5 °C -17.8 °C 7.4 °C
Humidity: 94% % 84%
Wind Speed: 53.1km/h 0.0km/h 19.1km/h
Wind Gust: 56.3km/h - -
Wind direction- - WSW
Pressure: 1009.4 hPa 0.0 hPa -
Precipitation: 4.8 mm    
Historical Graphs
 
 
Tabular Data for March 16, 2019
Time Temperature Dew Point Pressure Wind direction Wind Speed Wind Gust Humidity Rainfall Rate (Hourly) solar
00:04 10.4 °C 9.5 °C 1009.4 hPa WSW 19.5 km/h 29.0 km/h 94% 0.5 mm 0.00 W/m2
00:09 10.5 °C 9.4 °C 1009.4 hPa West 9.7 km/h 20.9 km/h 93% 0.5 mm 0.00 W/m2
00:14 10.5 °C 9.4 °C 1009.4 hPa SW 13.0 km/h 20.9 km/h 93% 0.5 mm 0.00 W/m2
00:19 10.5 °C 9.3 °C 1009.4 hPa WSW 20.9 km/h 20.9 km/h 92% 0.5 mm 0.00 W/m2
00:24 10.5 °C 9.3 °C 1009.4 hPa WSW 22.7 km/h 22.5 km/h 92% 0.5 mm 0.00 W/m2
00:29 10.5 °C 9.3 °C 1009.0 hPa West 9.7 km/h 19.3 km/h 92% 0.5 mm 0.00 W/m2
00:34 10.5 °C 9.1 °C 1009.0 hPa WSW 14.3 km/h 14.5 km/h 91% 0.3 mm 0.00 W/m2
00:39 10.4 °C 9.0 °C 1009.0 hPa WSW 7.9 km/h 17.7 km/h 91% 0.3 mm 0.00 W/m2
00:44 10.4 °C 9.0 °C 1009.0 hPa WSW 9.7 km/h 17.7 km/h 91% 0.0 mm 0.00 W/m2
00:49 10.5 °C 9.1 °C 1008.7 hPa SW 11.1 km/h 25.7 km/h 91% 0.0 mm 0.00 W/m2
00:54 10.5 °C 9.1 °C 1009.0 hPa SW 24.1 km/h 24.1 km/h 91% 0.0 mm 0.00 W/m2
00:59 10.5 °C 9.1 °C 1008.7 hPa SW 6.4 km/h 16.1 km/h 91% 0.0 mm 0.00 W/m2
01:04 10.4 °C 8.8 °C 1009.0 hPa WSW 9.7 km/h 22.5 km/h 90% 0.0 mm 0.00 W/m2
01:09 10.3 °C 8.7 °C 1008.7 hPa West 14.3 km/h 22.5 km/h 90% 0.3 mm 0.00 W/m2
01:14 10.3 °C 8.7 °C 1008.7 hPa West 16.3 km/h 25.7 km/h 90% 0.3 mm 0.00 W/m2
01:19 10.3 °C 8.9 °C 1008.7 hPa West 13.0 km/h 17.7 km/h 91% 0.3 mm 0.00 W/m2
01:24 10.2 °C 8.8 °C 1008.7 hPa West 29.0 km/h 29.0 km/h 91% 0.3 mm 0.00 W/m2
01:29 10.3 °C 8.9 °C 1008.4 hPa WSW 19.5 km/h 24.1 km/h 91% 0.3 mm 0.00 W/m2
01:34 10.2 °C 8.8 °C 1008.4 hPa WSW 11.1 km/h 27.4 km/h 91% 0.3 mm 0.00 W/m2
01:39 10.1 °C 8.7 °C 1008.4 hPa WSW 11.1 km/h 24.1 km/h 91% 0.3 mm 0.00 W/m2
01:44 10.1 °C 8.7 °C 1008.4 hPa SW 13.0 km/h 27.4 km/h 91% 0.3 mm 0.00 W/m2
01:49 10.0 °C 8.6 °C 1008.4 hPa WSW 25.9 km/h 25.7 km/h 91% 0.3 mm 0.00 W/m2
01:54 10.1 °C 8.7 °C 1008.4 hPa SW 16.3 km/h 17.7 km/h 91% 0.3 mm 0.00 W/m2
01:59 10.2 °C 8.8 °C 1008.4 hPa South 27.4 km/h 27.4 km/h 91% 0.3 mm 0.00 W/m2
02:04 10.2 °C 8.8 °C 1008.0 hPa WSW 13.0 km/h 17.7 km/h 91% 0.3 mm 0.00 W/m2
02:09 10.2 °C 8.8 °C 1008.0 hPa WSW 11.1 km/h 14.5 km/h 91% 0.0 mm 0.00 W/m2
02:14 10.2 °C 8.8 °C 1008.0 hPa SW 16.3 km/h 25.7 km/h 91% 0.0 mm 0.00 W/m2
02:19 10.2 °C 8.6 °C 1008.0 hPa SW 22.7 km/h 27.4 km/h 90% 0.0 mm 0.00 W/m2
02:24 10.2 °C 8.6 °C 1007.7 hPa West 17.7 km/h 19.3 km/h 90% 0.0 mm 0.00 W/m2
02:29 10.2 °C 8.6 °C 1007.7 hPa SW 33.8 km/h 33.8 km/h 90% 0.0 mm 0.00 W/m2
02:34 10.3 °C 8.7 °C 1007.3 hPa SW 17.7 km/h 24.1 km/h 90% 0.0 mm 0.00 W/m2
02:39 10.3 °C 8.7 °C 1007.3 hPa SW 17.7 km/h 20.9 km/h 90% 0.0 mm 0.00 W/m2
02:44 10.3 °C 8.6 °C 1007.3 hPa WSW 19.5 km/h 20.9 km/h 89% 0.0 mm 0.00 W/m2
02:49 10.2 °C 8.5 °C 1007.3 hPa West 14.3 km/h 22.5 km/h 89% 0.0 mm 0.00 W/m2
02:54 10.3 °C 8.6 °C 1007.3 hPa SW 13.0 km/h 17.7 km/h 89% 0.0 mm 0.00 W/m2
02:59 10.3 °C 8.6 °C 1007.3 hPa WSW 14.3 km/h 32.2 km/h 89% 0.0 mm 0.00 W/m2
03:04 10.3 °C 8.6 °C 1007.3 hPa West 16.3 km/h 22.5 km/h 89% 0.0 mm 0.00 W/m2
03:09 10.3 °C 8.6 °C 1007.3 hPa West 16.3 km/h 19.3 km/h 89% 0.0 mm 0.00 W/m2
03:14 10.3 °C 8.6 °C 1007.3 hPa WSW 14.3 km/h 27.4 km/h 89% 0.0 mm 0.00 W/m2
03:19 10.3 °C 8.6 °C 1007.3 hPa West 7.9 km/h 24.1 km/h 89% 0.0 mm 0.00 W/m2
03:24 10.3 °C 8.6 °C 1007.3 hPa WSW 30.6 km/h 30.6 km/h 89% 0.0 mm 0.00 W/m2
03:29 10.3 °C 8.6 °C 1007.3 hPa West 13.0 km/h 27.4 km/h 89% 0.0 mm 0.00 W/m2
03:34 10.3 °C 8.6 °C 1007.0 hPa WSW 14.3 km/h 32.2 km/h 89% 0.0 mm 0.00 W/m2
03:39 10.3 °C 8.6 °C 1007.0 hPa West 7.9 km/h 25.7 km/h 89% 0.0 mm 0.00 W/m2
03:44 10.3 °C 8.6 °C 1006.7 hPa West 14.3 km/h 24.1 km/h 89% 0.0 mm 0.00 W/m2
03:49 10.2 °C 8.5 °C 1006.7 hPa West 17.7 km/h 25.7 km/h 89% 0.0 mm 0.00 W/m2
03:54 10.3 °C 8.6 °C 1006.7 hPa WSW 19.5 km/h 25.7 km/h 89% 0.0 mm 0.00 W/m2
03:59 10.3 °C 8.6 °C 1006.7 hPa West 16.3 km/h 27.4 km/h 89% 0.0 mm 0.00 W/m2
04:04 10.3 °C 8.6 °C 1006.7 hPa West 20.9 km/h 37.0 km/h 89% 0.0 mm 0.00 W/m2
04:09 10.3 °C 8.6 °C 1006.7 hPa WSW 14.3 km/h 25.7 km/h 89% 0.0 mm 0.00 W/m2
04:14 10.3 °C 8.6 °C 1006.7 hPa WSW 16.3 km/h 33.8 km/h 89% 0.0 mm 0.00 W/m2
04:19 10.3 °C 8.6 °C 1006.7 hPa West 16.3 km/h 25.7 km/h 89% 0.0 mm 0.00 W/m2
04:24 10.3 °C 8.6 °C 1006.3 hPa WSW 28.8 km/h 33.8 km/h 89% 0.0 mm 0.00 W/m2
04:29 10.3 °C 8.4 °C 1006.3 hPa West 14.3 km/h 30.6 km/h 88% 0.0 mm 0.00 W/m2
04:34 10.4 °C 8.5 °C 1006.3 hPa West 20.9 km/h 33.8 km/h 88% 0.0 mm 0.00 W/m2
04:39 10.4 °C 8.3 °C 1006.3 hPa WSW 35.4 km/h 35.4 km/h 87% 0.0 mm 0.00 W/m2
04:44 10.4 °C 8.3 °C 1006.3 hPa West 7.9 km/h 22.5 km/h 87% 0.0 mm 0.00 W/m2
04:49 10.3 °C 8.2 °C 1006.3 hPa West 16.3 km/h 29.0 km/h 87% 0.0 mm 0.00 W/m2
04:54 10.3 °C 8.1 °C 1006.3 hPa WSW 17.7 km/h 41.8 km/h 86% 0.0 mm 0.00 W/m2
04:59 10.3 °C 8.1 °C 1006.3 hPa WSW 28.8 km/h 29.0 km/h 86% 0.0 mm 0.00 W/m2
05:04 10.3 °C 8.1 °C 1006.0 hPa WSW 14.3 km/h 30.6 km/h 86% 0.0 mm 0.00 W/m2
05:09 10.2 °C 8.0 °C 1006.0 hPa WSW 24.1 km/h 27.4 km/h 86% 0.0 mm 0.00 W/m2
05:14 10.2 °C 8.1 °C 1006.0 hPa West 22.7 km/h 27.4 km/h 87% 0.0 mm 0.00 W/m2
05:19 10.2 °C 8.0 °C 1006.0 hPa WSW 17.7 km/h 22.5 km/h 86% 0.0 mm 0.00 W/m2
05:24 10.1 °C 8.0 °C 1006.0 hPa SW 25.7 km/h 25.7 km/h 87% 0.0 mm 0.00 W/m2
05:29 10.1 °C 8.0 °C 1006.0 hPa West 16.3 km/h 27.4 km/h 87% 0.0 mm 0.00 W/m2
05:34 10.0 °C 7.9 °C 1006.0 hPa SW 11.1 km/h 16.1 km/h 87% 0.0 mm 0.00 W/m2
05:39 10.0 °C 8.1 °C 1006.0 hPa SW 30.6 km/h 30.6 km/h 88% 0.0 mm 0.00 W/m2
05:44 10.0 °C 8.1 °C 1006.0 hPa West 22.7 km/h 32.2 km/h 88% 0.0 mm 0.00 W/m2
05:49 10.0 °C 8.1 °C 1005.6 hPa WSW 13.0 km/h 19.3 km/h 88% 0.0 mm 0.00 W/m2
05:54 10.0 °C 8.1 °C 1005.6 hPa West 14.3 km/h 25.7 km/h 88% 0.0 mm 0.00 W/m2
05:59 10.1 °C 8.0 °C 1005.6 hPa WSW 11.1 km/h 20.9 km/h 87% 0.0 mm 0.00 W/m2
06:04 10.2 °C 8.1 °C 1005.6 hPa West 11.1 km/h 24.1 km/h 87% 0.0 mm 0.00 W/m2
06:09 10.2 °C 8.0 °C 1005.3 hPa WSW 14.3 km/h 29.0 km/h 86% 0.0 mm 0.00 W/m2
06:14 10.2 °C 8.0 °C 1005.3 hPa West 16.3 km/h 27.4 km/h 86% 0.0 mm 0.00 W/m2
06:19 10.2 °C 8.0 °C 1005.3 hPa West 9.7 km/h 19.3 km/h 86% 0.0 mm 0.00 W/m2
06:24 10.2 °C 8.0 °C 1005.3 hPa West 19.5 km/h 30.6 km/h 86% 0.0 mm 0.00 W/m2
06:29 10.2 °C 8.0 °C 1005.0 hPa West 19.5 km/h 20.9 km/h 86% 0.0 mm 0.00 W/m2
06:34 10.2 °C 8.0 °C 1005.0 hPa West 16.3 km/h 33.8 km/h 86% 0.0 mm 0.00 W/m2
06:39 10.3 °C 7.9 °C 1005.0 hPa NW 11.1 km/h 29.0 km/h 85% 0.0 mm 0.00 W/m2
06:44 10.3 °C 7.9 °C 1005.0 hPa WSW 19.5 km/h 30.6 km/h 85% 0.0 mm 0.00 W/m2
06:49 10.4 °C 8.0 °C 1004.6 hPa West 19.5 km/h 27.4 km/h 85% 0.0 mm 5.00 W/m2
06:54 10.4 °C 7.8 °C 1004.6 hPa WSW 24.1 km/h 27.4 km/h 84% 0.0 mm 5.00 W/m2
06:59 10.4 °C 7.8 °C 1004.6 hPa WSW 22.7 km/h 29.0 km/h 84% 0.0 mm 5.00 W/m2
07:04 10.5 °C 7.7 °C 1004.6 hPa WSW 14.3 km/h 30.6 km/h 83% 0.0 mm 7.00 W/m2
07:09 10.5 °C 7.7 °C 1005.0 hPa West 9.7 km/h 27.4 km/h 83% 0.0 mm 7.00 W/m2
07:14 10.5 °C 7.6 °C 1005.0 hPa WSW 22.7 km/h 30.6 km/h 82% 0.0 mm 7.00 W/m2
07:19 10.5 °C 7.6 °C 1004.6 hPa West 32.2 km/h 32.2 km/h 82% 0.0 mm 7.00 W/m2
07:24 10.5 °C 7.4 °C 1004.6 hPa WSW 14.3 km/h 30.6 km/h 81% 0.0 mm 12.00 W/m2
07:29 10.5 °C 7.4 °C 1005.0 hPa WSW 27.4 km/h 27.4 km/h 81% 0.0 mm 14.00 W/m2
07:34 10.5 °C 7.2 °C 1004.6 hPa West 14.3 km/h 30.6 km/h 80% 0.0 mm 25.00 W/m2
07:39 10.5 °C 7.2 °C 1004.6 hPa WSW 7.9 km/h 32.2 km/h 80% 0.0 mm 21.00 W/m2
07:44 10.5 °C 7.2 °C 1004.6 hPa WSW 27.4 km/h 30.6 km/h 80% 0.0 mm 28.00 W/m2
07:49 10.5 °C 7.2 °C 1004.6 hPa WSW 11.1 km/h 32.2 km/h 80% 0.0 mm 30.00 W/m2
07:54 10.5 °C 7.0 °C 1004.6 hPa WNW 13.0 km/h 25.7 km/h 79% 0.0 mm 23.00 W/m2
07:59 10.5 °C 7.0 °C 1004.6 hPa WSW 20.9 km/h 33.8 km/h 79% 0.0 mm 28.00 W/m2
08:04 10.5 °C 7.0 °C 1004.6 hPa WSW 14.3 km/h 33.8 km/h 79% 0.0 mm 33.00 W/m2
08:09 10.5 °C 7.0 °C 1004.3 hPa WSW 14.3 km/h 30.6 km/h 79% 0.0 mm 33.00 W/m2
08:14 10.4 °C 6.9 °C 1004.3 hPa WSW 24.1 km/h 24.1 km/h 79% 0.0 mm 37.00 W/m2
08:19 10.4 °C 7.1 °C 1004.3 hPa WSW 17.7 km/h 33.8 km/h 80% 0.0 mm 33.00 W/m2
08:24 10.3 °C 7.0 °C 1004.3 hPa WNW 16.3 km/h 27.4 km/h 80% 0.0 mm 28.00 W/m2
08:29 10.3 °C 7.0 °C 1004.3 hPa WSW 22.7 km/h 35.4 km/h 80% 0.0 mm 44.00 W/m2
08:34 10.3 °C 7.0 °C 1004.3 hPa WSW 27.4 km/h 40.2 km/h 80% 0.0 mm 54.00 W/m2
08:39 10.3 °C 7.0 °C 1004.3 hPa West 20.9 km/h 27.4 km/h 80% 0.0 mm 67.00 W/m2
08:44 10.4 °C 6.9 °C 1003.9 hPa WSW 20.9 km/h 38.6 km/h 79% 0.0 mm 49.00 W/m2
08:49 10.4 °C 6.7 °C 1003.9 hPa SW 33.8 km/h 33.8 km/h 78% 0.0 mm 53.00 W/m2
08:54 10.5 °C 6.8 °C 1004.3 hPa West 13.0 km/h 30.6 km/h 78% 0.0 mm 40.00 W/m2
08:59 10.4 °C 6.7 °C 1004.3 hPa WSW 27.4 km/h 40.2 km/h 78% 0.0 mm 49.00 W/m2
09:04 10.4 °C 6.9 °C 1003.9 hPa WSW 16.3 km/h 33.8 km/h 79% 0.0 mm 63.00 W/m2
09:09 10.5 °C 6.8 °C 1003.9 hPa West 16.3 km/h 35.4 km/h 78% 0.0 mm 88.00 W/m2
09:14 10.5 °C 6.8 °C 1003.9 hPa WSW 22.7 km/h 24.1 km/h 78% 0.0 mm 98.00 W/m2
09:19 10.6 °C 6.9 °C 1003.9 hPa WSW 24.1 km/h 38.6 km/h 78% 0.0 mm 97.00 W/m2
09:24 10.6 °C 6.9 °C 1003.9 hPa WNW 16.3 km/h 27.4 km/h 78% 0.0 mm 104.00 W/m2
09:29 10.7 °C 7.0 °C 1003.9 hPa WSW 16.3 km/h 25.7 km/h 78% 0.0 mm 109.00 W/m2
09:34 10.7 °C 6.8 °C 1003.6 hPa West 14.3 km/h 25.7 km/h 77% 0.0 mm 113.00 W/m2
09:39 10.7 °C 7.0 °C 1003.6 hPa WSW 9.7 km/h 29.0 km/h 78% 0.0 mm 105.00 W/m2
09:44 10.7 °C 7.0 °C 1003.6 hPa SW 19.5 km/h 37.0 km/h 78% 0.0 mm 134.00 W/m2
09:49 10.8 °C 7.1 °C 1003.6 hPa WSW 14.3 km/h 29.0 km/h 78% 0.0 mm 107.00 W/m2
09:54 10.8 °C 7.1 °C 1003.3 hPa WSW 24.1 km/h 40.2 km/h 78% 0.0 mm 128.00 W/m2
09:59 10.8 °C 7.1 °C 1003.3 hPa West 43.4 km/h 43.4 km/h 78% 0.0 mm 121.00 W/m2
10:04 10.9 °C 7.2 °C 1003.3 hPa SW 16.3 km/h 37.0 km/h 78% 0.3 mm 104.00 W/m2
10:09 10.8 °C 7.1 °C 1003.3 hPa WSW 9.7 km/h 27.4 km/h 78% 0.3 mm 98.00 W/m2
10:14 10.9 °C 7.2 °C 1003.3 hPa West 16.3 km/h 30.6 km/h 78% 0.3 mm 86.00 W/m2
10:19 10.9 °C 7.2 °C 1003.3 hPa WSW 20.9 km/h 35.4 km/h 78% 0.3 mm 86.00 W/m2
10:24 11.0 °C 7.1 °C 1003.3 hPa West 17.7 km/h 30.6 km/h 77% 0.3 mm 86.00 W/m2
10:29 11.0 °C 7.1 °C 1003.3 hPa SW 17.7 km/h 37.0 km/h 77% 0.3 mm 79.00 W/m2
10:34 11.1 °C 7.2 °C 1002.9 hPa SW 17.7 km/h 19.3 km/h 77% 0.3 mm 95.00 W/m2
10:39 11.1 °C 7.2 °C 1002.9 hPa WSW 13.0 km/h 32.2 km/h 77% 0.3 mm 153.00 W/m2
10:44 11.2 °C 7.3 °C 1002.6 hPa WSW 11.1 km/h 29.0 km/h 77% 0.3 mm 134.00 W/m2
10:49 11.3 °C 7.2 °C 1002.6 hPa West 25.9 km/h 33.8 km/h 76% 0.3 mm 128.00 W/m2
10:54 11.3 °C 7.0 °C 1002.6 hPa WNW 20.9 km/h 32.2 km/h 75% 0.3 mm 123.00 W/m2
10:59 11.4 °C 7.3 °C 1002.6 hPa SW 24.1 km/h 32.2 km/h 76% 0.3 mm 105.00 W/m2
11:04 11.4 °C 7.3 °C 1002.6 hPa West 16.3 km/h 38.6 km/h 76% 0.0 mm 167.00 W/m2
11:09 11.4 °C 7.3 °C 1002.3 hPa WSW 20.9 km/h 29.0 km/h 76% 0.0 mm 148.00 W/m2
11:14 11.4 °C 7.3 °C 1002.3 hPa SW 32.2 km/h 32.2 km/h 76% 0.0 mm 181.00 W/m2
11:19 11.5 °C 7.4 °C 1002.3 hPa SW 43.4 km/h 43.4 km/h 76% 0.0 mm 158.00 W/m2
11:24 11.5 °C 7.2 °C 1002.3 hPa West 27.4 km/h 45.1 km/h 75% 0.0 mm 200.00 W/m2
11:29 11.6 °C 7.1 °C 1002.3 hPa West 24.1 km/h 41.8 km/h 74% 0.0 mm 153.00 W/m2
11:34 11.6 °C 7.1 °C 1001.9 hPa WSW 27.4 km/h 29.0 km/h 74% 0.0 mm 151.00 W/m2
11:39 11.7 °C 7.2 °C 1001.9 hPa WNW 13.0 km/h 30.6 km/h 74% 0.0 mm 155.00 W/m2
11:44 11.8 °C 7.3 °C 1001.9 hPa WSW 28.8 km/h 38.6 km/h 74% 0.0 mm 186.00 W/m2
11:49 11.8 °C 7.3 °C 1001.6 hPa SW 27.4 km/h 27.4 km/h 74% 0.0 mm 216.00 W/m2
11:54 11.8 °C 7.3 °C 1001.6 hPa SW 33.8 km/h 38.6 km/h 74% 0.0 mm 188.00 W/m2
11:59 11.8 °C 7.5 °C 1001.2 hPa SW 28.8 km/h 33.8 km/h 75% 0.0 mm 288.00 W/m2
12:04 12.0 °C 7.5 °C 1001.2 hPa SW 19.5 km/h 29.0 km/h 74% 0.0 mm 272.00 W/m2
12:09 12.0 °C 7.5 °C 1001.2 hPa West 19.5 km/h 45.1 km/h 74% 0.0 mm 376.00 W/m2
12:14 12.1 °C 7.6 °C 1000.9 hPa SW 13.0 km/h 41.8 km/h 74% 0.0 mm 313.00 W/m2
12:19 12.2 °C 7.7 °C 1000.9 hPa West 7.9 km/h 35.4 km/h 74% 0.0 mm 206.00 W/m2
12:24 12.0 °C 7.5 °C 1000.9 hPa WSW 38.5 km/h 45.1 km/h 74% 0.0 mm 429.00 W/m2
12:29 12.1 °C 7.4 °C 1000.6 hPa WSW 32.0 km/h 51.5 km/h 73% 0.0 mm 478.00 W/m2
12:34 12.5 °C 7.6 °C 1000.2 hPa SSW 37.0 km/h 41.8 km/h 72% 0.0 mm 478.00 W/m2
12:39 12.7 °C 7.8 °C 1000.2 hPa SW 13.0 km/h 35.4 km/h 72% 0.0 mm 803.00 W/m2
12:44 12.8 °C 7.7 °C 1000.2 hPa WSW 20.9 km/h 45.1 km/h 71% 0.0 mm 803.00 W/m2
12:49 12.9 °C 7.8 °C 999.9 hPa WSW 33.8 km/h 43.4 km/h 71% 0.0 mm 705.00 W/m2
12:54 12.7 °C 7.6 °C 1000.2 hPa SW 48.3 km/h 48.3 km/h 71% 0.0 mm 772.00 W/m2
12:59 12.7 °C 7.8 °C 999.9 hPa West 22.7 km/h 35.4 km/h 72% 0.0 mm 536.00 W/m2
13:04 12.4 °C 7.7 °C 999.5 hPa SW 25.9 km/h 38.6 km/h 73% 0.0 mm 531.00 W/m2
13:09 12.3 °C 7.4 °C 999.5 hPa WSW 19.5 km/h 46.7 km/h 72% 0.0 mm 387.00 W/m2
13:14 12.4 °C 7.5 °C 999.5 hPa SW 20.9 km/h 37.0 km/h 72% 0.0 mm 279.00 W/m2
13:19 12.3 °C 7.6 °C 999.5 hPa SW 20.9 km/h 46.7 km/h 73% 0.0 mm 292.00 W/m2
13:24 12.3 °C 7.6 °C 998.9 hPa SW 22.7 km/h 43.4 km/h 73% 0.0 mm 373.00 W/m2
13:29 12.5 °C 7.6 °C 998.9 hPa SW 43.6 km/h 49.9 km/h 72% 0.0 mm 603.00 W/m2
13:34 12.5 °C 7.4 °C 998.9 hPa WSW 20.9 km/h 56.3 km/h 71% 0.0 mm 617.00 W/m2
13:39 12.5 °C 7.4 °C 998.9 hPa West 25.9 km/h 41.8 km/h 71% 0.0 mm 274.00 W/m2
13:44 12.5 °C 7.6 °C 998.5 hPa SSW 27.4 km/h 56.3 km/h 72% 0.0 mm 299.00 W/m2
13:49 12.5 °C 7.6 °C 998.5 hPa SW 20.9 km/h 32.2 km/h 72% 0.0 mm 202.00 W/m2
13:54 12.3 °C 7.6 °C 998.5 hPa West 16.3 km/h 45.1 km/h 73% 0.0 mm 134.00 W/m2
13:59 12.0 °C 7.5 °C 998.5 hPa SSW 24.1 km/h 38.6 km/h 74% 0.0 mm 162.00 W/m2
14:04 12.0 °C 7.5 °C 998.5 hPa WSW 19.5 km/h 32.2 km/h 74% 0.0 mm 142.00 W/m2
14:09 11.9 °C 7.6 °C 998.5 hPa SSW 16.3 km/h 40.2 km/h 75% 0.0 mm 148.00 W/m2
14:11 11.9 °C 7.6 °C 998.5 hPa SW 49.9 km/h 49.9 km/h 75% 0.0 mm 197.00 W/m2
14:29 11.6 °C 7.3 °C 998.2 hPa WSW 45.1 km/h 45.1 km/h 75% 0.0 mm 144.00 W/m2
14:34 11.6 °C 7.3 °C 998.2 hPa SW 40.4 km/h 45.1 km/h 75% 0.0 mm 141.00 W/m2
14:39 11.6 °C 7.3 °C 998.2 hPa SW 16.3 km/h 33.8 km/h 75% 0.0 mm 176.00 W/m2
14:44 11.6 °C 7.3 °C 997.9 hPa WSW 33.8 km/h 33.8 km/h 75% 0.0 mm 90.00 W/m2
14:49 11.5 °C 7.4 °C 997.9 hPa WSW 17.7 km/h 43.4 km/h 76% 0.0 mm 62.00 W/m2
14:54 11.4 °C 7.3 °C 998.2 hPa SSW 25.9 km/h 41.8 km/h 76% 0.0 mm 81.00 W/m2
14:59 11.4 °C 7.3 °C 998.2 hPa SW 27.4 km/h 49.9 km/h 76% 0.0 mm 56.00 W/m2
15:04 11.3 °C 7.4 °C 997.9 hPa SW 25.9 km/h 37.0 km/h 77% 0.0 mm 60.00 W/m2
15:09 11.3 °C 7.4 °C 997.9 hPa WSW 16.3 km/h 29.0 km/h 77% 0.0 mm 60.00 W/m2
15:14 11.3 °C 7.4 °C 997.5 hPa WSW 53.1 km/h 53.1 km/h 77% 0.0 mm 47.00 W/m2
15:19 11.3 °C 7.6 °C 997.5 hPa SW 27.4 km/h 41.8 km/h 78% 0.0 mm 49.00 W/m2
15:24 11.2 °C 7.5 °C 997.5 hPa SW 27.4 km/h 40.2 km/h 78% 0.0 mm 104.00 W/m2
15:29 11.2 °C 7.5 °C 997.5 hPa SW 20.9 km/h 38.6 km/h 78% 0.0 mm 69.00 W/m2
15:34 11.2 °C 7.7 °C 997.5 hPa WSW 41.8 km/h 41.8 km/h 79% 0.0 mm 47.00 W/m2
15:39 11.1 °C 7.6 °C 997.2 hPa West 38.5 km/h 38.6 km/h 79% 0.0 mm 62.00 W/m2
15:44 11.0 °C 7.5 °C 997.2 hPa WSW 22.7 km/h 38.6 km/h 79% 0.0 mm 76.00 W/m2
15:49 11.0 °C 7.7 °C 996.8 hPa SW 11.1 km/h 29.0 km/h 80% 0.0 mm 100.00 W/m2
15:54 11.0 °C 7.7 °C 996.8 hPa SW 16.3 km/h 40.2 km/h 80% 0.0 mm 132.00 W/m2
15:59 10.9 °C 7.8 °C 996.8 hPa SW 16.3 km/h 37.0 km/h 81% 0.0 mm 128.00 W/m2
16:04 11.0 °C 7.7 °C 996.5 hPa WSW 41.8 km/h 41.8 km/h 80% 0.0 mm 121.00 W/m2
16:09 11.0 °C 7.7 °C 996.2 hPa WSW 13.0 km/h 46.7 km/h 80% 0.0 mm 141.00 W/m2
16:14 11.1 °C 7.8 °C 996.2 hPa SW 19.5 km/h 45.1 km/h 80% 0.0 mm 121.00 W/m2
16:19 11.0 °C 7.7 °C 996.2 hPa WSW 48.3 km/h 48.3 km/h 80% 0.0 mm 95.00 W/m2
16:24 11.0 °C 7.7 °C 996.2 hPa WSW 53.1 km/h 53.1 km/h 80% 0.0 mm 127.00 W/m2
16:29 11.0 °C 7.9 °C 996.2 hPa SW 13.0 km/h 38.6 km/h 81% 0.0 mm 116.00 W/m2
16:34 10.9 °C 7.8 °C 996.2 hPa SW 37.0 km/h 49.9 km/h 81% 0.0 mm 107.00 W/m2
16:39 10.8 °C 7.9 °C 996.2 hPa WSW 45.1 km/h 45.1 km/h 82% 0.0 mm 104.00 W/m2
16:44 10.7 °C 7.9 °C 995.8 hPa SW 24.1 km/h 41.8 km/h 83% 0.0 mm 90.00 W/m2
16:49 10.6 °C 7.8 °C 995.8 hPa WSW 30.6 km/h 38.6 km/h 83% 0.0 mm 65.00 W/m2
16:54 10.6 °C 7.8 °C 995.8 hPa WSW 48.3 km/h 48.3 km/h 83% 0.0 mm 58.00 W/m2
16:59 10.6 °C 7.8 °C 995.8 hPa WSW 19.5 km/h 40.2 km/h 83% 0.0 mm 62.00 W/m2
17:04 10.5 °C 7.9 °C 995.8 hPa SW 41.8 km/h 48.3 km/h 84% 0.0 mm 46.00 W/m2
17:09 10.3 °C 7.9 °C 995.8 hPa West 25.9 km/h 37.0 km/h 85% 0.0 mm 32.00 W/m2
17:14 10.2 °C 8.0 °C 995.8 hPa WSW 46.7 km/h 46.7 km/h 86% 0.0 mm 23.00 W/m2
17:19 10.2 °C 8.0 °C 995.5 hPa West 16.3 km/h 27.4 km/h 86% 0.0 mm 37.00 W/m2
17:24 10.3 °C 8.1 °C 995.5 hPa SW 13.0 km/h 37.0 km/h 86% 0.0 mm 19.00 W/m2
17:29 10.3 °C 8.1 °C 995.5 hPa SW 16.3 km/h 32.2 km/h 86% 0.0 mm 7.00 W/m2
17:34 10.2 °C 8.0 °C 995.5 hPa SW 17.7 km/h 33.8 km/h 86% 0.0 mm 5.00 W/m2
17:39 10.2 °C 8.0 °C 995.1 hPa WSW 19.5 km/h 37.0 km/h 86% 0.0 mm 7.00 W/m2
17:44 10.0 °C 7.9 °C 995.1 hPa WSW 22.7 km/h 33.8 km/h 87% 0.3 mm 7.00 W/m2
17:49 10.0 °C 8.1 °C 995.1 hPa SW 25.9 km/h 30.6 km/h 88% 0.3 mm 5.00 W/m2
17:54 9.9 °C 8.0 °C 995.1 hPa SW 16.3 km/h 22.5 km/h 88% 0.3 mm 0.00 W/m2
17:58 9.9 °C 8.2 °C 995.1 hPa SSW 16.3 km/h 30.6 km/h 89% 0.5 mm 5.00 W/m2
17:59 9.9 °C 8.2 °C 995.1 hPa WSW 7.9 km/h 29.0 km/h 89% 0.5 mm 5.00 W/m2
18:00 9.9 °C 8.2 °C 995.1 hPa WSW 11.1 km/h 19.3 km/h 89% 0.5 mm 5.00 W/m2
18:04 9.9 °C 8.2 °C 995.1 hPa SSW 17.7 km/h 25.7 km/h 89% 0.5 mm 0.00 W/m2
18:08 9.9 °C 8.2 °C 994.8 hPa WSW 9.7 km/h 30.6 km/h 89% 0.5 mm 0.00 W/m2
18:12 9.9 °C 8.2 °C 995.1 hPa SW 33.8 km/h 33.8 km/h 89% 0.5 mm 0.00 W/m2
18:17 9.9 °C 8.2 °C 994.8 hPa WSW 11.1 km/h 25.7 km/h 89% 0.5 mm 0.00 W/m2
18:21 9.9 °C 8.2 °C 994.5 hPa SSW 19.5 km/h 20.9 km/h 89% 0.5 mm 0.00 W/m2
18:25 9.8 °C 8.1 °C 994.5 hPa WSW 14.3 km/h 29.0 km/h 89% 0.5 mm 0.00 W/m2
18:28 9.8 °C 8.1 °C 994.5 hPa SSW 9.7 km/h 24.1 km/h 89% 0.5 mm 0.00 W/m2
18:33 9.9 °C 8.3 °C 994.1 hPa SW 13.0 km/h 29.0 km/h 90% 0.5 mm 0.00 W/m2
18:39 9.9 °C 8.3 °C 995.1 hPa WNW 37.0 km/h 37.0 km/h 90% 0.5 mm 0.00 W/m2
18:43 9.1 °C 7.4 °C 995.5 hPa NW 24.1 km/h 43.4 km/h 89% 1.3 mm 0.00 W/m2
18:50 8.4 °C 6.7 °C 995.1 hPa West 13.0 km/h 22.5 km/h 89% 1.8 mm 0.00 W/m2
18:55 8.4 °C 6.9 °C 995.5 hPa West 7.9 km/h 25.7 km/h 90% 1.8 mm 0.00 W/m2
18:59 8.3 °C 6.8 °C 995.5 hPa WNW 9.7 km/h 25.7 km/h 90% 2.0 mm 0.00 W/m2
19:00 8.3 °C 6.8 °C 995.5 hPa West 7.9 km/h 25.7 km/h 90% 2.0 mm 0.00 W/m2
19:26 -17.8 °C -17.8 °C 0.0 hPa Calm   -1607.4 km/h % 0.0 mm W/m2
19:30 7.9 °C 6.5 °C 995.5 hPa West 6.4 km/h 19.3 km/h 91% 2.8 mm 0.00 W/m2
19:35 7.8 °C 6.4 °C 995.5 hPa West 22.5 km/h 22.5 km/h 91% 2.8 mm 0.00 W/m2
19:40 7.8 °C 6.4 °C 995.5 hPa SW 13.0 km/h 16.1 km/h 91% 2.8 mm 0.00 W/m2
19:45 7.8 °C 6.4 °C 995.5 hPa WNW 17.7 km/h 22.5 km/h 91% 1.8 mm 0.00 W/m2
19:50 7.9 °C 6.5 °C 995.5 hPa West 4.7 km/h 11.3 km/h 91% 1.5 mm 0.00 W/m2
19:54 7.9 °C 6.5 °C 995.5 hPa West 11.1 km/h 12.9 km/h 91% 1.3 mm 0.00 W/m2
19:59 7.9 °C 6.5 °C 995.5 hPa West 9.7 km/h 16.1 km/h 91% 1.5 mm 0.00 W/m2
20:00 7.9 °C 6.5 °C 995.5 hPa WSW 16.3 km/h 16.1 km/h 91% 1.5 mm 0.00 W/m2
20:05 7.9 °C 6.5 °C 995.5 hPa West 6.4 km/h 16.1 km/h 91% 1.3 mm 0.00 W/m2
20:11 7.9 °C 6.5 °C 995.5 hPa West 4.7 km/h 14.5 km/h 91% 1.0 mm 0.00 W/m2
20:16 7.9 °C 6.5 °C 995.5 hPa West 3.2 km/h 16.1 km/h 91% 1.0 mm 0.00 W/m2
20:20 7.8 °C 6.6 °C 995.5 hPa West 13.0 km/h 20.9 km/h 92% 1.0 mm 0.00 W/m2
20:24 7.8 °C 6.4 °C 995.5 hPa West 13.0 km/h 22.5 km/h 91% 1.0 mm 0.00 W/m2
20:27 7.9 °C 6.5 °C 995.5 hPa WNW 9.7 km/h 24.1 km/h 91% 0.8 mm 0.00 W/m2
20:32 7.9 °C 6.5 °C 995.8 hPa West 16.3 km/h 17.7 km/h 91% 0.5 mm 0.00 W/m2
20:36 7.8 °C 6.4 °C 995.8 hPa NW 16.3 km/h 32.2 km/h 91% 0.5 mm 0.00 W/m2
20:40 7.7 °C 6.3 °C 995.8 hPa West 17.7 km/h 29.0 km/h 91% 0.5 mm 0.00 W/m2
20:44 7.5 °C 6.1 °C 995.8 hPa West 13.0 km/h 27.4 km/h 91% 0.5 mm 0.00 W/m2
20:48 7.4 °C 6.0 °C 996.2 hPa West 13.0 km/h 24.1 km/h 91% 0.5 mm 0.00 W/m2
20:53 7.2 °C 5.8 °C 996.2 hPa West 13.0 km/h 22.5 km/h 91% 0.8 mm 0.00 W/m2
20:59 7.0 °C 5.6 °C 996.2 hPa WNW 14.3 km/h 30.6 km/h 91% 0.5 mm 0.00 W/m2
21:01 6.9 °C 5.5 °C 996.2 hPa WNW 13.0 km/h 29.0 km/h 91% 0.5 mm 0.00 W/m2
21:08 6.7 °C 5.3 °C 996.2 hPa West 14.3 km/h 25.7 km/h 91% 0.5 mm 0.00 W/m2
21:15 6.6 °C 5.2 °C 996.2 hPa WNW 6.4 km/h 14.5 km/h 91% 0.5 mm 0.00 W/m2
21:20 6.5 °C 5.1 °C 996.5 hPa West 17.7 km/h 17.7 km/h 91% 0.5 mm 0.00 W/m2
21:26 6.4 °C 5.0 °C 996.2 hPa WNW 6.4 km/h 14.5 km/h 91% 0.3 mm 0.00 W/m2
21:32 6.4 °C 5.0 °C 996.5 hPa West 11.1 km/h 19.3 km/h 91% 0.3 mm 0.00 W/m2
21:38 6.4 °C 5.0 °C 996.5 hPa WNW 3.2 km/h 12.9 km/h 91% 0.3 mm 0.00 W/m2
21:44 6.3 °C 4.9 °C 996.5 hPa WNW 1.4 km/h 8.0 km/h 91% 0.3 mm 0.00 W/m2
21:48 6.3 °C 4.9 °C 996.5 hPa WNW 9.7 km/h 9.7 km/h 91% 0.3 mm 0.00 W/m2
21:50 6.3 °C 4.9 °C 996.8 hPa WNW 6.4 km/h 9.7 km/h 91% 0.0 mm 0.00 W/m2
21:52 6.3 °C 4.9 °C 996.5 hPa WNW 4.7 km/h 11.3 km/h 91% 0.0 mm 0.00 W/m2
21:54 6.3 °C 4.9 °C 996.8 hPa WNW 1.4 km/h 9.7 km/h 91% 0.0 mm 0.00 W/m2
23:09 6.2 °C 4.5 °C 997.2 hPa West 11.1 km/h 16.1 km/h 89% 0.0 mm 0.00 W/m2
23:14 6.2 °C 4.5 °C 997.5 hPa WNW 13.0 km/h 22.5 km/h 89% 0.0 mm 0.00 W/m2
23:19 6.2 °C 4.5 °C 997.5 hPa WNW 9.7 km/h 14.5 km/h 89% 0.0 mm 0.00 W/m2
23:24 6.1 °C 4.4 °C 997.5 hPa WNW 4.7 km/h 16.1 km/h 89% 0.0 mm 0.00 W/m2
23:29 6.0 °C 4.3 °C 997.5 hPa WNW 3.2 km/h 12.9 km/h 89% 0.0 mm 0.00 W/m2
23:34 5.9 °C 4.2 °C 997.5 hPa WNW 4.7 km/h 9.7 km/h 89% 0.0 mm 0.00 W/m2
23:39 5.8 °C 4.1 °C 997.5 hPa West 7.9 km/h 14.5 km/h 89% 0.0 mm 0.00 W/m2
23:44 5.8 °C 4.1 °C 997.9 hPa WNW 7.9 km/h 14.5 km/h 89% 0.0 mm 0.00 W/m2
23:49 5.7 °C 4.0 °C 997.9 hPa WNW 7.9 km/h 14.5 km/h 89% 0.0 mm 0.00 W/m2
23:54 5.7 °C 3.9 °C 997.9 hPa WNW 11.1 km/h 12.9 km/h 88% 0.0 mm 0.00 W/m2
23:59 5.6 °C 3.8 °C 997.9 hPa WNW 7.9 km/h 14.5 km/h 88% 0.0 mm 0.00 W/m2